sensor_id;sensor_type;location;lat;lon;timestamp;P1;durP1;ratioP1;P2;durP2;ratioP2
4021;SDS011;2025;48.260;16.432;2023-04-16T00:01:28;10.02;;;3.67;;
4021;SDS011;2025;48.260;16.432;2023-04-16T00:03:55;10.85;;;4.10;;
4021;SDS011;2025;48.260;16.432;2023-04-16T00:06:22;8.63;;;3.75;;
4021;SDS011;2025;48.260;16.432;2023-04-16T00:08:51;11.00;;;4.00;;
4021;SDS011;2025;48.260;16.432;2023-04-16T00:11:17;8.50;;;4.20;;
4021;SDS011;2025;48.260;16.432;2023-04-16T00:13:44;9.63;;;5.05;;
4021;SDS011;2025;48.260;16.432;2023-04-16T00:16:11;8.23;;;3.88;;
4021;SDS011;2025;48.260;16.432;2023-04-16T00:18:38;10.95;;;4.47;;
4021;SDS011;2025;48.260;16.432;2023-04-16T00:21:05;8.20;;;3.75;;
4021;SDS011;2025;48.260;16.432;2023-04-16T00:23:32;9.93;;;4.57;;
4021;SDS011;2025;48.260;16.432;2023-04-16T00:26:01;9.98;;;4.20;;
4021;SDS011;2025;48.260;16.432;2023-04-16T00:28:28;10.35;;;4.28;;
4021;SDS011;2025;48.260;16.432;2023-04-16T00:30:55;11.05;;;4.60;;
4021;SDS011;2025;48.260;16.432;2023-04-16T00:33:22;10.70;;;5.45;;
4021;SDS011;2025;48.260;16.432;2023-04-16T00:35:49;9.93;;;4.38;;
4021;SDS011;2025;48.260;16.432;2023-04-16T00:38:16;10.07;;;4.43;;
4021;SDS011;2025;48.260;16.432;2023-04-16T00:40:43;9.35;;;4.80;;
4021;SDS011;2025;48.260;16.432;2023-04-16T00:43:12;11.48;;;5.25;;
4021;SDS011;2025;48.260;16.432;2023-04-16T00:45:47;7.85;;;4.85;;
4021;SDS011;2025;48.260;16.432;2023-04-16T00:48:14;8.15;;;4.13;;
4021;SDS011;2025;48.260;16.432;2023-04-16T00:50:41;10.80;;;5.07;;
4021;SDS011;2025;48.260;16.432;2023-04-16T00:53:08;8.88;;;4.50;;
4021;SDS011;2025;48.260;16.432;2023-04-16T00:55:35;10.48;;;4.35;;
4021;SDS011;2025;48.260;16.432;2023-04-16T00:58:02;9.07;;;4.53;;
4021;SDS011;2025;48.260;16.432;2023-04-16T01:00:31;7.82;;;3.75;;
4021;SDS011;2025;48.260;16.432;2023-04-16T01:02:58;9.02;;;4.35;;
4021;SDS011;2025;48.260;16.432;2023-04-16T01:05:25;10.90;;;4.57;;
4021;SDS011;2025;48.260;16.432;2023-04-16T01:07:52;9.90;;;4.70;;
4021;SDS011;2025;48.260;16.432;2023-04-16T01:10:23;10.63;;;4.90;;
4021;SDS011;2025;48.260;16.432;2023-04-16T01:12:50;10.57;;;5.32;;
4021;SDS011;2025;48.260;16.432;2023-04-16T01:15:17;9.40;;;4.93;;
4021;SDS011;2025;48.260;16.432;2023-04-16T01:17:46;11.93;;;5.75;;
4021;SDS011;2025;48.260;16.432;2023-04-16T01:20:13;9.65;;;4.40;;
4021;SDS011;2025;48.260;16.432;2023-04-16T01:22:41;9.10;;;4.20;;
4021;SDS011;2025;48.260;16.432;2023-04-16T01:25:12;8.90;;;4.40;;
4021;SDS011;2025;48.260;16.432;2023-04-16T01:27:39;9.57;;;4.03;;
4021;SDS011;2025;48.260;16.432;2023-04-16T01:30:07;11.93;;;4.82;;
4021;SDS011;2025;48.260;16.432;2023-04-16T01:32:34;9.00;;;4.57;;
4021;SDS011;2025;48.260;16.432;2023-04-16T01:35:01;8.48;;;4.47;;
4021;SDS011;2025;48.260;16.432;2023-04-16T01:37:28;11.32;;;4.75;;
4021;SDS011;2025;48.260;16.432;2023-04-16T01:39:57;10.93;;;4.93;;
4021;SDS011;2025;48.260;16.432;2023-04-16T01:42:24;10.95;;;5.65;;
4021;SDS011;2025;48.260;16.432;2023-04-16T01:44:52;9.85;;;4.45;;
4021;SDS011;2025;48.260;16.432;2023-04-16T01:47:19;10.88;;;4.68;;
4021;SDS011;2025;48.260;16.432;2023-04-16T01:49:46;10.52;;;5.40;;
4021;SDS011;2025;48.260;16.432;2023-04-16T01:52:13;12.20;;;5.85;;
4021;SDS011;2025;48.260;16.432;2023-04-16T01:54:40;8.90;;;4.30;;
4021;SDS011;2025;48.260;16.432;2023-04-16T01:57:09;9.30;;;5.00;;
4021;SDS011;2025;48.260;16.432;2023-04-16T01:59:36;10.40;;;4.63;;
4021;SDS011;2025;48.260;16.432;2023-04-16T02:02:05;11.13;;;4.97;;
4021;SDS011;2025;48.260;16.432;2023-04-16T02:04:35;9.63;;;4.63;;
4021;SDS011;2025;48.260;16.432;2023-04-16T02:07:03;9.55;;;4.18;;
4021;SDS011;2025;48.260;16.432;2023-04-16T02:09:30;9.13;;;4.32;;
4021;SDS011;2025;48.260;16.432;2023-04-16T02:11:59;10.70;;;5.18;;
4021;SDS011;2025;48.260;16.432;2023-04-16T02:14:28;11.60;;;4.72;;
4021;SDS011;2025;48.260;16.432;2023-04-16T02:16:55;9.30;;;4.60;;
4021;SDS011;2025;48.260;16.432;2023-04-16T02:19:22;9.43;;;4.18;;
4021;SDS011;2025;48.260;16.432;2023-04-16T02:21:50;8.60;;;4.00;;
4021;SDS011;2025;48.260;16.432;2023-04-16T02:24:17;10.63;;;3.78;;
4021;SDS011;2025;48.260;16.432;2023-04-16T02:26:44;9.93;;;4.40;;
4021;SDS011;2025;48.260;16.432;2023-04-16T02:29:11;8.80;;;4.45;;
4021;SDS011;2025;48.260;16.432;2023-04-16T02:31:40;9.30;;;4.55;;
4021;SDS011;2025;48.260;16.432;2023-04-16T02:34:07;9.15;;;3.70;;
4021;SDS011;2025;48.260;16.432;2023-04-16T02:36:34;11.05;;;3.97;;
4021;SDS011;2025;48.260;16.432;2023-04-16T02:39:01;10.55;;;5.00;;
4021;SDS011;2025;48.260;16.432;2023-04-16T02:41:28;10.18;;;4.82;;
4021;SDS011;2025;48.260;16.432;2023-04-16T02:43:55;11.05;;;4.97;;
4021;SDS011;2025;48.260;16.432;2023-04-16T02:46:22;9.82;;;4.72;;
4021;SDS011;2025;48.260;16.432;2023-04-16T02:48:51;10.60;;;5.00;;
4021;SDS011;2025;48.260;16.432;2023-04-16T02:51:18;12.70;;;4.53;;
4021;SDS011;2025;48.260;16.432;2023-04-16T02:53:45;11.18;;;4.97;;
4021;SDS011;2025;48.260;16.432;2023-04-16T02:56:12;10.23;;;4.95;;
4021;SDS011;2025;48.260;16.432;2023-04-16T02:58:39;10.43;;;5.15;;
4021;SDS011;2025;48.260;16.432;2023-04-16T03:01:06;11.80;;;6.15;;
4021;SDS011;2025;48.260;16.432;2023-04-16T03:03:33;11.48;;;5.47;;
4021;SDS011;2025;48.260;16.432;2023-04-16T03:06:01;12.13;;;6.05;;
4021;SDS011;2025;48.260;16.432;2023-04-16T03:08:28;11.32;;;5.63;;
4021;SDS011;2025;48.260;16.432;2023-04-16T03:10:55;10.77;;;4.32;;
4021;SDS011;2025;48.260;16.432;2023-04-16T03:13:22;11.82;;;5.38;;
4021;SDS011;2025;48.260;16.432;2023-04-16T03:15:49;11.40;;;4.43;;
4021;SDS011;2025;48.260;16.432;2023-04-16T03:18:16;10.40;;;4.53;;
4021;SDS011;2025;48.260;16.432;2023-04-16T03:20:43;10.38;;;5.35;;
4021;SDS011;2025;48.260;16.432;2023-04-16T03:23:11;13.32;;;5.30;;
4021;SDS011;2025;48.260;16.432;2023-04-16T03:25:38;12.43;;;6.30;;
4021;SDS011;2025;48.260;16.432;2023-04-16T03:28:07;9.00;;;4.18;;
4021;SDS011;2025;48.260;16.432;2023-04-16T03:30:34;10.75;;;4.70;;
4021;SDS011;2025;48.260;16.432;2023-04-16T03:33:02;13.98;;;5.82;;
4021;SDS011;2025;48.260;16.432;2023-04-16T03:35:29;12.68;;;5.88;;
4021;SDS011;2025;48.260;16.432;2023-04-16T03:37:55;13.70;;;5.93;;
4021;SDS011;2025;48.260;16.432;2023-04-16T03:45:17;11.93;;;5.28;;
4021;SDS011;2025;48.260;16.432;2023-04-16T03:47:44;12.93;;;5.60;;
4021;SDS011;2025;48.260;16.432;2023-04-16T03:50:16;13.00;;;6.45;;
4021;SDS011;2025;48.260;16.432;2023-04-16T03:52:43;11.77;;;5.75;;
4021;SDS011;2025;48.260;16.432;2023-04-16T03:55:11;13.60;;;6.65;;
4021;SDS011;2025;48.260;16.432;2023-04-16T03:57:38;12.63;;;6.25;;
4021;SDS011;2025;48.260;16.432;2023-04-16T04:00:07;12.52;;;5.90;;
4021;SDS011;2025;48.260;16.432;2023-04-16T04:02:35;13.98;;;7.30;;
4021;SDS011;2025;48.260;16.432;2023-04-16T04:05:02;14.57;;;6.60;;
4021;SDS011;2025;48.260;16.432;2023-04-16T04:07:29;12.55;;;6.15;;
4021;SDS011;2025;48.260;16.432;2023-04-16T04:09:56;13.55;;;6.57;;
4021;SDS011;2025;48.260;16.432;2023-04-16T04:12:22;12.43;;;5.97;;
4021;SDS011;2025;48.260;16.432;2023-04-16T04:14:49;15.90;;;7.40;;
4021;SDS011;2025;48.260;16.432;2023-04-16T04:17:18;14.25;;;6.18;;
4021;SDS011;2025;48.260;16.432;2023-04-16T04:19:45;13.65;;;6.00;;
4021;SDS011;2025;48.260;16.432;2023-04-16T04:22:12;13.57;;;5.97;;
4021;SDS011;2025;48.260;16.432;2023-04-16T04:24:39;14.20;;;7.05;;
4021;SDS011;2025;48.260;16.432;2023-04-16T04:27:06;14.20;;;7.03;;
4021;SDS011;2025;48.260;16.432;2023-04-16T04:29:33;17.02;;;6.88;;
4021;SDS011;2025;48.260;16.432;2023-04-16T04:32:00;14.80;;;6.78;;
4021;SDS011;2025;48.260;16.432;2023-04-16T04:34:28;15.80;;;7.18;;
4021;SDS011;2025;48.260;16.432;2023-04-16T04:36:55;15.55;;;7.57;;
4021;SDS011;2025;48.260;16.432;2023-04-16T04:39:22;15.15;;;6.63;;
4021;SDS011;2025;48.260;16.432;2023-04-16T04:41:49;13.68;;;6.35;;
4021;SDS011;2025;48.260;16.432;2023-04-16T04:44:16;13.73;;;6.18;;
4021;SDS011;2025;48.260;16.432;2023-04-16T04:46:43;15.73;;;7.72;;
4021;SDS011;2025;48.260;16.432;2023-04-16T04:49:10;14.13;;;6.90;;
4021;SDS011;2025;48.260;16.432;2023-04-16T04:51:38;17.20;;;7.63;;
4021;SDS011;2025;48.260;16.432;2023-04-16T04:54:05;18.95;;;7.47;;
4021;SDS011;2025;48.260;16.432;2023-04-16T04:56:32;16.77;;;7.28;;
4021;SDS011;2025;48.260;16.432;2023-04-16T04:58:59;16.42;;;7.55;;
4021;SDS011;2025;48.260;16.432;2023-04-16T05:01:26;18.30;;;9.13;;
4021;SDS011;2025;48.260;16.432;2023-04-16T05:03:53;18.30;;;8.65;;
4021;SDS011;2025;48.260;16.432;2023-04-16T05:06:20;21.95;;;9.43;;
4021;SDS011;2025;48.260;16.432;2023-04-16T05:08:48;16.77;;;7.82;;
4021;SDS011;2025;48.260;16.432;2023-04-16T05:11:15;19.67;;;7.95;;
4021;SDS011;2025;48.260;16.432;2023-04-16T05:13:42;18.55;;;7.85;;
4021;SDS011;2025;48.260;16.432;2023-04-16T05:16:09;22.20;;;8.27;;
4021;SDS011;2025;48.260;16.432;2023-04-16T05:18:36;20.27;;;9.10;;
4021;SDS011;2025;48.260;16.432;2023-04-16T05:21:03;21.98;;;9.93;;
4021;SDS011;2025;48.260;16.432;2023-04-16T05:23:31;20.48;;;9.65;;
4021;SDS011;2025;48.260;16.432;2023-04-16T05:25:59;16.75;;;8.70;;
4021;SDS011;2025;48.260;16.432;2023-04-16T05:28:26;21.50;;;10.07;;
4021;SDS011;2025;48.260;16.432;2023-04-16T05:30:53;20.60;;;9.85;;
4021;SDS011;2025;48.260;16.432;2023-04-16T05:33:20;19.98;;;8.77;;
4021;SDS011;2025;48.260;16.432;2023-04-16T05:35:47;22.58;;;9.75;;
4021;SDS011;2025;48.260;16.432;2023-04-16T05:38:14;20.05;;;9.48;;
4021;SDS011;2025;48.260;16.432;2023-04-16T05:40:41;23.65;;;11.25;;
4021;SDS011;2025;48.260;16.432;2023-04-16T05:43:09;22.10;;;10.88;;
4021;SDS011;2025;48.260;16.432;2023-04-16T05:45:36;20.33;;;9.30;;
4021;SDS011;2025;48.260;16.432;2023-04-16T05:48:05;22.27;;;10.18;;
4021;SDS011;2025;48.260;16.432;2023-04-16T05:50:33;21.67;;;10.50;;
4021;SDS011;2025;48.260;16.432;2023-04-16T05:53:00;23.42;;;11.15;;
4021;SDS011;2025;48.260;16.432;2023-04-16T05:55:28;21.08;;;10.57;;
4021;SDS011;2025;48.260;16.432;2023-04-16T05:57:55;22.77;;;11.38;;
4021;SDS011;2025;48.260;16.432;2023-04-16T06:00:23;23.10;;;10.50;;
4021;SDS011;2025;48.260;16.432;2023-04-16T06:02:51;20.50;;;10.02;;
4021;SDS011;2025;48.260;16.432;2023-04-16T06:05:18;22.58;;;10.40;;
4021;SDS011;2025;48.260;16.432;2023-04-16T06:07:45;22.48;;;11.18;;
4021;SDS011;2025;48.260;16.432;2023-04-16T06:10:12;17.05;;;9.48;;
4021;SDS011;2025;48.260;16.432;2023-04-16T06:12:39;22.85;;;10.10;;
4021;SDS011;2025;48.260;16.432;2023-04-16T06:15:06;20.33;;;10.38;;
4021;SDS011;2025;48.260;16.432;2023-04-16T06:17:36;21.63;;;10.63;;
4021;SDS011;2025;48.260;16.432;2023-04-16T06:20:03;21.58;;;10.60;;
4021;SDS011;2025;48.260;16.432;2023-04-16T06:22:30;19.27;;;9.65;;
4021;SDS011;2025;48.260;16.432;2023-04-16T06:24:57;21.38;;;10.20;;
4021;SDS011;2025;48.260;16.432;2023-04-16T06:27:25;20.67;;;11.10;;
4021;SDS011;2025;48.260;16.432;2023-04-16T06:29:52;18.65;;;8.93;;
4021;SDS011;2025;48.260;16.432;2023-04-16T06:32:18;20.02;;;9.57;;
4021;SDS011;2025;48.260;16.432;2023-04-16T06:34:47;18.08;;;9.68;;
4021;SDS011;2025;48.260;16.432;2023-04-16T06:37:14;19.20;;;9.60;;
4021;SDS011;2025;48.260;16.432;2023-04-16T06:39:41;20.20;;;10.35;;
4021;SDS011;2025;48.260;16.432;2023-04-16T06:42:08;17.48;;;9.63;;
4021;SDS011;2025;48.260;16.432;2023-04-16T06:44:35;16.88;;;9.57;;
4021;SDS011;2025;48.260;16.432;2023-04-16T06:47:02;17.52;;;8.48;;
4021;SDS011;2025;48.260;16.432;2023-04-16T06:49:29;15.88;;;8.88;;
4021;SDS011;2025;48.260;16.432;2023-04-16T06:51:58;15.95;;;8.38;;
4021;SDS011;2025;48.260;16.432;2023-04-16T06:54:24;14.68;;;7.63;;
4021;SDS011;2025;48.260;16.432;2023-04-16T06:56:51;12.48;;;6.53;;
4021;SDS011;2025;48.260;16.432;2023-04-16T06:59:18;12.30;;;6.20;;
4021;SDS011;2025;48.260;16.432;2023-04-16T07:01:45;14.07;;;6.63;;
4021;SDS011;2025;48.260;16.432;2023-04-16T07:04:12;12.07;;;6.30;;
4021;SDS011;2025;48.260;16.432;2023-04-16T07:06:39;11.27;;;5.85;;
4021;SDS011;2025;48.260;16.432;2023-04-16T07:09:08;13.25;;;5.95;;
4021;SDS011;2025;48.260;16.432;2023-04-16T07:11:35;12.05;;;6.38;;
4021;SDS011;2025;48.260;16.432;2023-04-16T07:14:02;11.57;;;5.95;;
4021;SDS011;2025;48.260;16.432;2023-04-16T07:16:29;10.63;;;5.78;;
4021;SDS011;2025;48.260;16.432;2023-04-16T07:18:56;10.73;;;5.55;;
4021;SDS011;2025;48.260;16.432;2023-04-16T07:21:23;10.15;;;5.05;;
4021;SDS011;2025;48.260;16.432;2023-04-16T07:23:50;9.82;;;4.93;;
4021;SDS011;2025;48.260;16.432;2023-04-16T07:26:18;12.38;;;5.57;;
4021;SDS011;2025;48.260;16.432;2023-04-16T07:28:45;8.68;;;4.60;;
4021;SDS011;2025;48.260;16.432;2023-04-16T07:33:56;8.30;;;4.18;;
4021;SDS011;2025;48.260;16.432;2023-04-16T07:36:23;8.32;;;4.43;;
4021;SDS011;2025;48.260;16.432;2023-04-16T07:38:51;8.50;;;3.80;;
4021;SDS011;2025;48.260;16.432;2023-04-16T07:41:19;7.50;;;3.42;;
4021;SDS011;2025;48.260;16.432;2023-04-16T07:43:46;7.20;;;3.50;;
4021;SDS011;2025;48.260;16.432;2023-04-16T07:46:13;7.57;;;3.60;;
4021;SDS011;2025;48.260;16.432;2023-04-16T07:48:41;7.35;;;3.22;;
4021;SDS011;2025;48.260;16.432;2023-04-16T07:51:08;7.63;;;3.85;;
4021;SDS011;2025;48.260;16.432;2023-04-16T07:53:35;7.57;;;3.70;;
4021;SDS011;2025;48.260;16.432;2023-04-16T07:56:02;5.88;;;2.75;;
4021;SDS011;2025;48.260;16.432;2023-04-16T07:58:31;6.50;;;2.45;;
4021;SDS011;2025;48.260;16.432;2023-04-16T08:00:57;6.07;;;2.95;;
4021;SDS011;2025;48.260;16.432;2023-04-16T08:03:25;7.32;;;2.75;;
4021;SDS011;2025;48.260;16.432;2023-04-16T08:05:52;6.38;;;2.47;;
4021;SDS011;2025;48.260;16.432;2023-04-16T08:08:19;6.65;;;2.65;;
4021;SDS011;2025;48.260;16.432;2023-04-16T08:10:46;5.70;;;2.03;;
4021;SDS011;2025;48.260;16.432;2023-04-16T08:13:14;5.93;;;2.83;;
4021;SDS011;2025;48.260;16.432;2023-04-16T08:15:42;5.90;;;2.75;;
4021;SDS011;2025;48.260;16.432;2023-04-16T08:18:09;6.28;;;2.90;;
4021;SDS011;2025;48.260;16.432;2023-04-16T08:20:39;5.97;;;3.20;;
4021;SDS011;2025;48.260;16.432;2023-04-16T08:23:06;5.40;;;2.25;;
4021;SDS011;2025;48.260;16.432;2023-04-16T08:25:33;6.43;;;2.67;;
4021;SDS011;2025;48.260;16.432;2023-04-16T08:28:00;5.90;;;2.38;;
4021;SDS011;2025;48.260;16.432;2023-04-16T08:30:28;5.60;;;2.63;;
4021;SDS011;2025;48.260;16.432;2023-04-16T08:32:56;5.57;;;2.63;;
4021;SDS011;2025;48.260;16.432;2023-04-16T08:35:23;6.72;;;3.13;;
4021;SDS011;2025;48.260;16.432;2023-04-16T08:37:50;7.30;;;2.47;;
4021;SDS011;2025;48.260;16.432;2023-04-16T08:40:17;6.20;;;2.35;;
4021;SDS011;2025;48.260;16.432;2023-04-16T08:42:46;7.05;;;2.67;;
4021;SDS011;2025;48.260;16.432;2023-04-16T08:45:18;5.88;;;2.30;;
4021;SDS011;2025;48.260;16.432;2023-04-16T08:47:46;5.55;;;2.40;;
4021;SDS011;2025;48.260;16.432;2023-04-16T08:50:15;6.07;;;2.70;;
4021;SDS011;2025;48.260;16.432;2023-04-16T08:52:44;5.13;;;2.03;;
4021;SDS011;2025;48.260;16.432;2023-04-16T08:55:22;5.78;;;2.85;;
4021;SDS011;2025;48.260;16.432;2023-04-16T08:57:56;6.78;;;2.10;;
4021;SDS011;2025;48.260;16.432;2023-04-16T09:00:24;6.05;;;2.58;;
4021;SDS011;2025;48.260;16.432;2023-04-16T09:02:52;5.43;;;2.25;;
4021;SDS011;2025;48.260;16.432;2023-04-16T09:05:20;5.30;;;2.20;;
4021;SDS011;2025;48.260;16.432;2023-04-16T09:07:49;6.28;;;2.25;;
4021;SDS011;2025;48.260;16.432;2023-04-16T09:10:18;6.40;;;2.45;;
4021;SDS011;2025;48.260;16.432;2023-04-16T09:12:45;5.32;;;2.25;;
4021;SDS011;2025;48.260;16.432;2023-04-16T09:15:12;5.18;;;2.30;;
4021;SDS011;2025;48.260;16.432;2023-04-16T09:17:39;5.90;;;2.30;;
4021;SDS011;2025;48.260;16.432;2023-04-16T09:20:07;5.18;;;2.22;;
4021;SDS011;2025;48.260;16.432;2023-04-16T09:22:36;5.22;;;2.00;;
4021;SDS011;2025;48.260;16.432;2023-04-16T09:25:04;4.47;;;1.55;;
4021;SDS011;2025;48.260;16.432;2023-04-16T09:27:32;4.57;;;1.42;;
4021;SDS011;2025;48.260;16.432;2023-04-16T09:29:59;4.00;;;1.27;;
4021;SDS011;2025;48.260;16.432;2023-04-16T09:32:26;4.70;;;1.73;;
4021;SDS011;2025;48.260;16.432;2023-04-16T09:34:55;5.18;;;1.75;;
4021;SDS011;2025;48.260;16.432;2023-04-16T09:37:23;4.40;;;1.50;;
4021;SDS011;2025;48.260;16.432;2023-04-16T09:39:59;4.05;;;1.00;;
4021;SDS011;2025;48.260;16.432;2023-04-16T09:42:27;4.68;;;1.13;;
4021;SDS011;2025;48.260;16.432;2023-04-16T09:44:55;4.45;;;1.10;;
4021;SDS011;2025;48.260;16.432;2023-04-16T09:47:24;4.00;;;1.33;;
4021;SDS011;2025;48.260;16.432;2023-04-16T09:49:51;4.80;;;1.73;;
4021;SDS011;2025;48.260;16.432;2023-04-16T09:52:24;4.43;;;1.52;;
4021;SDS011;2025;48.260;16.432;2023-04-16T09:54:51;5.20;;;1.50;;
4021;SDS011;2025;48.260;16.432;2023-04-16T09:57:20;4.60;;;1.65;;
4021;SDS011;2025;48.260;16.432;2023-04-16T09:59:51;3.83;;;1.35;;
4021;SDS011;2025;48.260;16.432;2023-04-16T10:02:22;4.45;;;1.27;;
4021;SDS011;2025;48.260;16.432;2023-04-16T10:04:52;3.50;;;1.15;;
4021;SDS011;2025;48.260;16.432;2023-04-16T10:07:19;4.13;;;0.98;;
4021;SDS011;2025;48.260;16.432;2023-04-16T10:09:46;3.50;;;0.95;;
4021;SDS011;2025;48.260;16.432;2023-04-16T10:12:14;4.05;;;1.00;;
4021;SDS011;2025;48.260;16.432;2023-04-16T10:14:43;3.60;;;0.90;;
4021;SDS011;2025;48.260;16.432;2023-04-16T10:17:10;3.50;;;0.70;;
4021;SDS011;2025;48.260;16.432;2023-04-16T10:19:37;3.38;;;0.90;;
4021;SDS011;2025;48.260;16.432;2023-04-16T10:22:04;3.67;;;0.90;;
4021;SDS011;2025;48.260;16.432;2023-04-16T10:24:32;3.83;;;1.17;;
4021;SDS011;2025;48.260;16.432;2023-04-16T10:27:00;3.20;;;0.85;;
4021;SDS011;2025;48.260;16.432;2023-04-16T10:29:28;3.40;;;1.20;;
4021;SDS011;2025;48.260;16.432;2023-04-16T10:31:58;3.33;;;0.95;;
4021;SDS011;2025;48.260;16.432;2023-04-16T10:34:26;3.80;;;1.42;;
4021;SDS011;2025;48.260;16.432;2023-04-16T10:36:55;4.18;;;1.40;;
4021;SDS011;2025;48.260;16.432;2023-04-16T10:39:22;4.78;;;1.48;;
4021;SDS011;2025;48.260;16.432;2023-04-16T10:41:50;7.35;;;1.27;;
4021;SDS011;2025;48.260;16.432;2023-04-16T10:44:32;3.80;;;0.90;;
4021;SDS011;2025;48.260;16.432;2023-04-16T10:47:01;3.58;;;0.80;;
4021;SDS011;2025;48.260;16.432;2023-04-16T10:49:28;3.65;;;0.93;;
4021;SDS011;2025;48.260;16.432;2023-04-16T10:51:55;3.22;;;0.75;;
4021;SDS011;2025;48.260;16.432;2023-04-16T10:54:23;3.22;;;0.65;;
4021;SDS011;2025;48.260;16.432;2023-04-16T10:56:52;3.20;;;0.82;;
4021;SDS011;2025;48.260;16.432;2023-04-16T10:59:21;3.53;;;1.00;;
4021;SDS011;2025;48.260;16.432;2023-04-16T11:01:50;3.40;;;0.85;;
4021;SDS011;2025;48.260;16.432;2023-04-16T11:07:15;3.67;;;0.73;;
4021;SDS011;2025;48.260;16.432;2023-04-16T11:09:44;3.60;;;0.60;;
4021;SDS011;2025;48.260;16.432;2023-04-16T11:12:19;3.20;;;0.82;;
4021;SDS011;2025;48.260;16.432;2023-04-16T11:14:48;3.65;;;0.70;;
4021;SDS011;2025;48.260;16.432;2023-04-16T11:17:16;4.38;;;0.93;;
4021;SDS011;2025;48.260;16.432;2023-04-16T11:19:45;4.38;;;0.77;;
4021;SDS011;2025;48.260;16.432;2023-04-16T11:22:12;3.90;;;0.90;;
4021;SDS011;2025;48.260;16.432;2023-04-16T11:24:41;3.90;;;0.77;;
4021;SDS011;2025;48.260;16.432;2023-04-16T11:27:10;3.90;;;0.63;;
4021;SDS011;2025;48.260;16.432;2023-04-16T11:29:38;3.78;;;0.90;;
4021;SDS011;2025;48.260;16.432;2023-04-16T11:32:05;2.97;;;0.98;;
4021;SDS011;2025;48.260;16.432;2023-04-16T11:34:33;4.72;;;0.77;;
4021;SDS011;2025;48.260;16.432;2023-04-16T11:37:01;3.65;;;0.75;;
4021;SDS011;2025;48.260;16.432;2023-04-16T11:39:28;3.90;;;0.95;;
4021;SDS011;2025;48.260;16.432;2023-04-16T11:41:55;3.70;;;1.30;;
4021;SDS011;2025;48.260;16.432;2023-04-16T11:44:23;4.65;;;0.77;;
4021;SDS011;2025;48.260;16.432;2023-04-16T11:46:51;3.63;;;0.93;;
4021;SDS011;2025;48.260;16.432;2023-04-16T11:49:25;3.17;;;0.73;;
4021;SDS011;2025;48.260;16.432;2023-04-16T11:51:53;2.70;;;0.75;;
4021;SDS011;2025;48.260;16.432;2023-04-16T11:54:22;3.10;;;0.77;;
4021;SDS011;2025;48.260;16.432;2023-04-16T11:56:50;4.20;;;0.63;;
4021;SDS011;2025;48.260;16.432;2023-04-16T11:59:19;3.00;;;0.70;;
4021;SDS011;2025;48.260;16.432;2023-04-16T12:01:48;3.10;;;0.75;;
4021;SDS011;2025;48.260;16.432;2023-04-16T12:04:18;3.53;;;0.50;;
4021;SDS011;2025;48.260;16.432;2023-04-16T12:09:33;3.03;;;0.40;;
4021;SDS011;2025;48.260;16.432;2023-04-16T12:12:02;3.40;;;1.10;;
4021;SDS011;2025;48.260;16.432;2023-04-16T12:14:29;2.90;;;0.38;;
4021;SDS011;2025;48.260;16.432;2023-04-16T12:19:49;2.45;;;0.60;;
4021;SDS011;2025;48.260;16.432;2023-04-16T12:22:17;2.55;;;0.38;;
4021;SDS011;2025;48.260;16.432;2023-04-16T12:24:55;2.60;;;0.43;;
4021;SDS011;2025;48.260;16.432;2023-04-16T12:27:24;2.35;;;0.40;;
4021;SDS011;2025;48.260;16.432;2023-04-16T12:30:05;2.58;;;0.57;;
4021;SDS011;2025;48.260;16.432;2023-04-16T12:32:35;2.88;;;0.45;;
4021;SDS011;2025;48.260;16.432;2023-04-16T12:35:03;3.17;;;0.50;;
4021;SDS011;2025;48.260;16.432;2023-04-16T12:37:30;3.13;;;0.80;;
4021;SDS011;2025;48.260;16.432;2023-04-16T12:39:59;3.00;;;0.77;;
4021;SDS011;2025;48.260;16.432;2023-04-16T12:42:26;3.72;;;0.80;;
4021;SDS011;2025;48.260;16.432;2023-04-16T12:44:59;3.10;;;0.90;;
4021;SDS011;2025;48.260;16.432;2023-04-16T12:47:27;3.65;;;1.00;;
4021;SDS011;2025;48.260;16.432;2023-04-16T12:49:54;3.72;;;1.05;;
4021;SDS011;2025;48.260;16.432;2023-04-16T12:52:23;3.22;;;0.70;;
4021;SDS011;2025;48.260;16.432;2023-04-16T12:54:50;2.90;;;0.60;;
4021;SDS011;2025;48.260;16.432;2023-04-16T12:57:19;3.20;;;0.80;;
4021;SDS011;2025;48.260;16.432;2023-04-16T12:59:48;2.65;;;0.75;;
4021;SDS011;2025;48.260;16.432;2023-04-16T13:02:15;2.80;;;0.77;;
4021;SDS011;2025;48.260;16.432;2023-04-16T13:04:42;2.83;;;0.75;;
4021;SDS011;2025;48.260;16.432;2023-04-16T13:07:09;3.17;;;0.63;;
4021;SDS011;2025;48.260;16.432;2023-04-16T13:09:36;3.35;;;0.93;;
4021;SDS011;2025;48.260;16.432;2023-04-16T13:12:03;2.92;;;0.82;;
4021;SDS011;2025;48.260;16.432;2023-04-16T13:14:33;3.35;;;0.70;;
4021;SDS011;2025;48.260;16.432;2023-04-16T13:17:01;3.65;;;0.90;;
4021;SDS011;2025;48.260;16.432;2023-04-16T13:19:29;4.18;;;1.00;;
4021;SDS011;2025;48.260;16.432;2023-04-16T13:21:57;3.08;;;0.68;;
4021;SDS011;2025;48.260;16.432;2023-04-16T13:24:24;3.33;;;0.77;;
4021;SDS011;2025;48.260;16.432;2023-04-16T13:26:51;3.58;;;0.90;;
4021;SDS011;2025;48.260;16.432;2023-04-16T13:29:18;2.47;;;0.50;;
4021;SDS011;2025;48.260;16.432;2023-04-16T13:31:47;3.30;;;0.70;;
4021;SDS011;2025;48.260;16.432;2023-04-16T13:34:14;2.83;;;0.73;;
4021;SDS011;2025;48.260;16.432;2023-04-16T13:36:41;3.40;;;0.98;;
4021;SDS011;2025;48.260;16.432;2023-04-16T13:39:08;2.78;;;0.68;;
4021;SDS011;2025;48.260;16.432;2023-04-16T13:41:35;3.50;;;1.02;;
4021;SDS011;2025;48.260;16.432;2023-04-16T13:44:02;2.55;;;0.65;;
4021;SDS011;2025;48.260;16.432;2023-04-16T13:46:30;2.95;;;0.57;;
4021;SDS011;2025;48.260;16.432;2023-04-16T13:48:59;3.03;;;0.60;;
4021;SDS011;2025;48.260;16.432;2023-04-16T13:51:26;3.58;;;0.77;;
4021;SDS011;2025;48.260;16.432;2023-04-16T13:53:53;2.75;;;0.60;;
4021;SDS011;2025;48.260;16.432;2023-04-16T13:56:20;3.08;;;0.68;;
4021;SDS011;2025;48.260;16.432;2023-04-16T13:58:47;2.88;;;0.75;;
4021;SDS011;2025;48.260;16.432;2023-04-16T14:01:14;3.05;;;0.68;;
4021;SDS011;2025;48.260;16.432;2023-04-16T14:03:42;3.22;;;0.93;;
4021;SDS011;2025;48.260;16.432;2023-04-16T14:06:12;3.33;;;0.98;;
4021;SDS011;2025;48.260;16.432;2023-04-16T14:08:39;3.53;;;0.75;;
4021;SDS011;2025;48.260;16.432;2023-04-16T14:11:06;3.42;;;1.00;;
4021;SDS011;2025;48.260;16.432;2023-04-16T14:13:33;3.22;;;0.88;;
4021;SDS011;2025;48.260;16.432;2023-04-16T14:16:00;3.58;;;0.77;;
4021;SDS011;2025;48.260;16.432;2023-04-16T14:18:27;4.75;;;1.25;;
4021;SDS011;2025;48.260;16.432;2023-04-16T14:20:54;3.53;;;0.80;;
4021;SDS011;2025;48.260;16.432;2023-04-16T14:23:23;3.33;;;0.90;;
4021;SDS011;2025;48.260;16.432;2023-04-16T14:25:50;4.32;;;0.88;;
4021;SDS011;2025;48.260;16.432;2023-04-16T14:28:18;3.60;;;0.82;;
4021;SDS011;2025;48.260;16.432;2023-04-16T14:30:45;3.78;;;1.08;;
4021;SDS011;2025;48.260;16.432;2023-04-16T14:33:12;3.55;;;1.10;;
4021;SDS011;2025;48.260;16.432;2023-04-16T14:35:39;3.38;;;0.90;;
4021;SDS011;2025;48.260;16.432;2023-04-16T14:38:07;3.45;;;0.82;;
4021;SDS011;2025;48.260;16.432;2023-04-16T14:40:37;3.35;;;1.15;;
4021;SDS011;2025;48.260;16.432;2023-04-16T14:43:14;3.45;;;0.82;;
4021;SDS011;2025;48.260;16.432;2023-04-16T14:45:42;3.28;;;0.88;;
4021;SDS011;2025;48.260;16.432;2023-04-16T14:48:10;2.80;;;0.57;;
4021;SDS011;2025;48.260;16.432;2023-04-16T14:50:38;3.35;;;0.90;;
4021;SDS011;2025;48.260;16.432;2023-04-16T14:53:08;3.40;;;0.88;;
4021;SDS011;2025;48.260;16.432;2023-04-16T14:55:38;3.65;;;0.75;;
4021;SDS011;2025;48.260;16.432;2023-04-16T14:58:05;4.70;;;0.70;;
4021;SDS011;2025;48.260;16.432;2023-04-16T15:00:33;3.15;;;0.70;;
4021;SDS011;2025;48.260;16.432;2023-04-16T15:03:01;3.55;;;1.33;;
4021;SDS011;2025;48.260;16.432;2023-04-16T15:05:28;3.17;;;0.93;;
4021;SDS011;2025;48.260;16.432;2023-04-16T15:07:56;3.20;;;0.70;;
4021;SDS011;2025;48.260;16.432;2023-04-16T15:10:24;3.00;;;0.77;;
4021;SDS011;2025;48.260;16.432;2023-04-16T15:12:53;2.72;;;0.65;;
4021;SDS011;2025;48.260;16.432;2023-04-16T15:15:21;3.30;;;1.00;;